Time;durP1;ratioP1;P1;durP2;ratioP2;P2;SDS_P1;SDS_P2;PMS_P1;PMS_P2;Temp;Humidity;BMP_temperature;BMP_pressure;BME280_temperature;BME280_humidity;BME280_pressure;Samples;Min_cycle;Max_cycle;Signal;HPM_P1;HPM_P2
2022/01/14 00:01:10;;;;;;;11.57;6.93;;;7.50;79.20;;;;;;5016139;28;20039;-83
2022/01/14 00:03:36;;;;;;;11.10;7.07;;;7.60;79.20;;;;;;5028428;28;20053;-85
2022/01/14 00:06:02;;;;;;;10.63;6.55;;;7.50;79.20;;;;;;5015504;28;20441;-84
2022/01/14 00:08:28;;;;;;;10.05;6.05;;;7.50;79.20;;;;;;5044729;28;20057;-84
2022/01/14 00:10:56;;;;;;;11.73;6.60;;;7.50;79.20;;;;;;5020227;28;20042;-84
2022/01/14 00:16:06;;;;;;;10.38;6.35;;;7.60;79.20;;;;;;5022940;28;20032;-86
2022/01/14 00:18:32;;;;;;;10.45;6.55;;;7.50;79.20;;;;;;4987695;28;20486;-84
2022/01/14 00:21:00;;;;;;;11.80;6.65;;;7.60;79.20;;;;;;5027149;28;20030;-86
2022/01/14 00:23:34;;;;;;;11.85;8.07;;;7.50;79.20;;;;;;5018814;28;20037;-85
2022/01/14 00:31:43;;;;;;;11.45;6.85;;;7.50;79.20;;;;;;5026324;28;20517;-87
2022/01/14 00:34:14;;;;;;;11.57;6.25;;;7.50;79.20;;;;;;5020515;28;20025;-84
2022/01/14 00:36:40;;;;;;;10.02;6.53;;;7.50;79.20;;;;;;5001500;28;20099;-85
2022/01/14 00:39:08;;;;;;;9.75;6.45;;;7.50;79.20;;;;;;5032794;28;20033;-85
2022/01/14 00:41:35;;;;;;;9.38;6.43;;;7.50;79.20;;;;;;5023987;28;20471;-85
2022/01/14 00:44:04;;;;;;;9.13;5.95;;;7.50;79.20;;;;;;5024529;28;20021;-84
2022/01/14 00:46:30;;;;;;;11.50;6.82;;;7.50;79.20;;;;;;5029326;28;20033;-85
2022/01/14 00:48:56;;;;;;;10.18;6.88;;;7.50;79.30;;;;;;5045383;28;20071;-87
2022/01/14 00:51:23;;;;;;;9.88;6.65;;;7.50;79.20;;;;;;5025097;28;20034;-88
2022/01/14 00:53:51;;;;;;;10.73;6.90;;;7.50;79.20;;;;;;5047321;28;20037;-88
2022/01/14 00:56:25;;;;;;;11.05;7.13;;;7.50;79.90;;;;;;5048382;28;20086;-84
2022/01/14 01:01:37;;;;;;;10.52;6.55;;;7.50;79.20;;;;;;5052169;28;20119;-83
2022/01/14 01:04:03;;;;;;;9.98;6.82;;;7.50;79.20;;;;;;5033342;28;20151;-84
2022/01/14 01:06:29;;;;;;;10.38;6.75;;;7.50;79.20;;;;;;5041434;28;20090;-84
2022/01/14 01:08:56;;;;;;;9.27;6.18;;;7.50;79.20;;;;;;5060701;28;20036;-84
2022/01/14 01:11:28;;;;;;;10.63;7.10;;;7.50;79.30;;;;;;5020534;28;20048;-84
2022/01/14 01:14:04;;;;;;;8.65;6.13;;;7.50;79.20;;;;;;5023910;28;20025;-83
2022/01/14 01:16:30;;;;;;;10.40;7.05;;;7.50;79.20;;;;;;5015934;28;20029;-84
2022/01/14 01:18:55;;;;;;;9.15;6.25;;;7.50;79.90;;;;;;5042853;28;20156;-85
2022/01/14 01:21:21;;;;;;;10.35;6.72;;;7.50;79.20;;;;;;5039416;28;20190;-85
2022/01/14 01:23:47;;;;;;;10.30;7.03;;;7.50;79.20;;;;;;5049596;28;20039;-85
2022/01/14 01:26:20;;;;;;;10.77;6.55;;;7.50;79.20;;;;;;5056793;28;20133;-85
2022/01/14 01:31:38;;;;;;;9.93;6.53;;;7.50;79.30;;;;;;5031684;28;20080;-88
2022/01/14 01:34:19;;;;;;;12.30;7.40;;;7.50;79.20;;;;;;5042747;28;20025;-84
2022/01/14 01:36:47;;;;;;;10.43;7.45;;;7.50;79.30;;;;;;5045880;28;20116;-85
2022/01/14 01:39:15;;;;;;;11.07;7.68;;;7.40;79.20;;;;;;5042713;28;20016;-84
2022/01/14 01:41:47;;;;;;;10.35;6.60;;;7.40;79.20;;;;;;5052501;28;20473;-86
2022/01/14 01:44:15;;;;;;;11.05;7.32;;;7.40;79.20;;;;;;5069848;28;20110;-86
2022/01/14 01:46:45;;;;;;;12.00;7.78;;;7.50;79.30;;;;;;5053367;28;20068;-84
2022/01/14 01:49:11;;;;;;;10.73;6.60;;;7.50;79.30;;;;;;5052725;28;20025;-86
2022/01/14 01:51:38;;;;;;;10.85;7.30;;;7.40;79.20;;;;;;5044917;28;20037;-85
2022/01/14 01:54:04;;;;;;;11.02;7.28;;;7.40;79.30;;;;;;5066983;28;20051;-84
2022/01/14 01:56:30;;;;;;;10.75;6.97;;;7.40;79.20;;;;;;5038902;28;20087;-84
2022/01/14 01:58:56;;;;;;;9.93;6.43;;;7.50;79.30;;;;;;5073660;28;20428;-86
2022/01/14 02:01:23;;;;;;;11.55;7.45;;;7.40;79.20;;;;;;5012987;28;20426;-84
2022/01/14 02:03:52;;;;;;;10.85;7.00;;;7.40;79.20;;;;;;5047610;28;20053;-84
2022/01/14 02:06:20;;;;;;;10.95;6.97;;;7.50;79.30;;;;;;5067455;28;20477;-85
2022/01/14 02:08:46;;;;;;;10.82;7.13;;;7.50;79.30;;;;;;5024609;28;20088;-84
2022/01/14 02:11:12;;;;;;;10.43;7.28;;;7.40;79.20;;;;;;5008900;28;20470;-84
2022/01/14 02:13:38;;;;;;;12.13;7.53;;;7.40;79.20;;;;;;5018830;28;20025;-86
2022/01/14 02:24:09;;;;;;;10.15;6.63;;;7.40;79.20;;;;;;5061522;28;20082;-85
2022/01/14 02:26:50;;;;;;;11.10;7.13;;;7.50;79.20;;;;;;5029465;28;20033;-84
2022/01/14 02:29:16;;;;;;;10.02;6.75;;;7.40;79.30;;;;;;5041850;28;20079;-86
2022/01/14 02:31:43;;;;;;;10.23;6.93;;;7.40;79.20;;;;;;5013086;28;20519;-84
2022/01/14 02:34:10;;;;;;;11.23;6.93;;;7.40;79.30;;;;;;5021633;28;20138;-88
2022/01/14 02:36:38;;;;;;;10.52;6.97;;;7.40;79.30;;;;;;5068113;28;20083;-85
2022/01/14 02:39:04;;;;;;;10.63;7.25;;;7.40;79.30;;;;;;5039908;28;20086;-85
2022/01/14 02:41:33;;;;;;;10.25;6.85;;;7.40;79.30;;;;;;4989305;28;20041;-86
2022/01/14 02:44:07;;;;;;;11.27;7.68;;;7.40;79.30;;;;;;5055690;28;20033;-86
2022/01/14 02:46:42;;;;;;;9.73;7.43;;;7.40;79.30;;;;;;5013441;28;20032;-85
2022/01/14 02:49:08;;;;;;;11.48;7.28;;;7.40;79.20;;;;;;5035704;28;20024;-84
2022/01/14 02:51:35;;;;;;;11.02;6.97;;;7.40;79.30;;;;;;5064821;28;20048;-84
2022/01/14 02:54:16;;;;;;;9.93;7.18;;;7.40;79.30;;;;;;5044955;28;20036;-84
2022/01/14 02:56:44;;;;;;;10.30;6.72;;;7.40;79.30;;;;;;5044293;28;20079;-88
2022/01/14 02:59:10;;;;;;;9.98;6.95;;;7.40;79.30;;;;;;5026242;28;20021;-86
2022/01/14 03:01:36;;;;;;;9.25;6.78;;;7.40;79.30;;;;;;5043889;28;20033;-85
2022/01/14 03:04:04;;;;;;;10.05;7.03;;;7.40;79.30;;;;;;5032054;28;20029;-85
2022/01/14 03:06:30;;;;;;;10.52;7.22;;;7.40;79.30;;;;;;5049642;28;20056;-88
2022/01/14 03:09:00;;;;;;;10.38;7.03;;;7.40;79.30;;;;;;5054564;28;20090;-84
2022/01/14 03:11:34;;;;;;;11.13;7.15;;;7.40;79.30;;;;;;5045496;28;20033;-84
2022/01/14 03:14:02;;;;;;;10.85;7.28;;;7.40;79.30;;;;;;5061233;28;20204;-85
2022/01/14 03:16:31;;;;;;;9.85;6.55;;;7.40;79.30;;;;;;5035748;28;20029;-84
2022/01/14 03:19:06;;;;;;;10.40;6.85;;;7.40;79.30;;;;;;5037466;28;20135;-85
2022/01/14 03:21:37;;;;;;;11.63;7.30;;;7.40;79.30;;;;;;5036605;28;20044;-85
2022/01/14 03:24:15;;;;;;;10.68;7.35;;;7.40;79.30;;;;;;5045841;28;20057;-85
2022/01/14 03:26:42;;;;;;;9.48;6.45;;;7.40;79.30;;;;;;5015518;28;20037;-86
2022/01/14 03:29:08;;;;;;;9.48;6.60;;;7.40;79.30;;;;;;5038174;28;20444;-85
2022/01/14 03:31:34;;;;;;;9.93;6.90;;;7.40;79.30;;;;;;5049901;28;20120;-86
2022/01/14 03:34:00;;;;;;;11.70;7.40;;;7.40;79.30;;;;;;5011851;28;20033;-85
2022/01/14 03:36:26;;;;;;;10.30;6.60;;;7.40;79.40;;;;;;5030253;28;20029;-85
2022/01/14 03:38:52;;;;;;;9.90;6.70;;;7.40;79.30;;;;;;5065617;28;20462;-85
2022/01/14 03:41:18;;;;;;;10.23;6.95;;;7.40;79.30;;;;;;5023993;28;20124;-84
2022/01/14 03:43:44;;;;;;;10.02;6.85;;;7.40;79.30;;;;;;5028906;28;20040;-84
2022/01/14 03:46:23;;;;;;;9.20;6.45;;;7.40;79.30;;;;;;5061914;27;1275393;-84
2022/01/14 03:48:52;;;;;;;9.88;6.63;;;7.40;79.20;;;;;;5045771;28;20028;-84
2022/01/14 03:51:19;;;;;;;11.60;7.43;;;7.40;79.30;;;;;;5060278;28;20067;-86
2022/01/14 03:53:46;;;;;;;10.00;7.18;;;7.40;79.30;;;;;;5042324;28;20043;-84
2022/01/14 03:56:12;;;;;;;10.43;6.85;;;7.40;79.30;;;;;;5057201;28;20029;-84
2022/01/14 03:58:38;;;;;;;9.85;6.95;;;7.40;79.30;;;;;;5078836;28;20024;-84
2022/01/14 04:01:06;;;;;;;9.38;7.00;;;7.40;79.30;;;;;;5062501;28;20056;-84
2022/01/14 04:03:32;;;;;;;9.98;6.88;;;7.40;79.30;;;;;;5044122;28;20033;-85
2022/01/14 04:05:58;;;;;;;9.63;6.78;;;7.40;79.30;;;;;;5041150;28;20048;-84
2022/01/14 04:08:24;;;;;;;10.13;6.65;;;7.40;79.30;;;;;;5058414;28;20061;-82
2022/01/14 04:10:53;;;;;;;11.55;7.68;;;7.40;79.30;;;;;;5082201;28;20043;-84
2022/01/14 04:13:23;;;;;;;11.95;7.50;;;7.40;79.30;;;;;;5051431;28;20462;-85
2022/01/14 04:15:49;;;;;;;10.63;7.50;;;7.40;79.40;;;;;;5072315;28;20069;-86
2022/01/14 04:18:18;;;;;;;9.85;6.90;;;7.30;79.20;;;;;;5059877;28;20032;-83
2022/01/14 04:20:47;;;;;;;11.02;7.13;;;7.30;79.30;;;;;;5081200;28;20035;-84
2022/01/14 04:23:15;;;;;;;10.95;7.03;;;7.30;79.30;;;;;;5072957;28;20040;-84
2022/01/14 04:25:42;;;;;;;10.90;7.32;;;7.40;79.30;;;;;;5066787;28;20416;-83
2022/01/14 04:28:11;;;;;;;11.18;6.93;;;7.30;79.30;;;;;;5064398;28;20835;-83
2022/01/14 04:30:37;;;;;;;11.05;7.28;;;7.30;79.30;;;;;;5069443;28;20119;-84
2022/01/14 04:33:04;;;;;;;9.50;6.63;;;7.30;79.30;;;;;;5047932;28;20029;-84
2022/01/14 04:35:32;;;;;;;10.57;6.70;;;7.30;79.30;;;;;;5041691;28;20032;-83
2022/01/14 04:37:58;;;;;;;11.25;7.32;;;7.30;79.30;;;;;;5062286;28;20115;-86
2022/01/14 04:40:24;;;;;;;10.32;7.28;;;7.30;79.30;;;;;;5073392;28;20024;-84
2022/01/14 04:42:52;;;;;;;10.75;6.88;;;7.30;79.30;;;;;;5057582;28;20072;-84
2022/01/14 04:47:53;;;;;;;10.93;7.18;;;7.30;79.30;;;;;;5055673;28;20032;-91
2022/01/14 04:50:21;;;;;;;11.85;7.47;;;7.30;79.30;;;;;;5061061;28;20042;-85
2022/01/14 04:52:48;;;;;;;10.23;7.18;;;7.30;79.30;;;;;;5064258;28;20024;-85
2022/01/14 04:55:16;;;;;;;11.20;7.43;;;7.30;79.30;;;;;;5055044;28;20124;-84
2022/01/14 04:57:43;;;;;;;10.85;7.05;;;7.30;79.30;;;;;;5044149;28;20017;-85
2022/01/14 05:00:12;;;;;;;10.88;7.32;;;7.30;79.30;;;;;;5056827;28;20111;-85
2022/01/14 05:02:38;;;;;;;10.30;6.95;;;7.30;79.30;;;;;;5079575;28;20082;-87
2022/01/14 05:05:09;;;;;;;11.27;6.80;;;7.30;79.30;;;;;;5037079;28;20039;-84
2022/01/14 05:07:36;;;;;;;10.90;7.47;;;7.30;79.30;;;;;;5056853;28;20154;-87
2022/01/14 05:12:32;;;;;;;13.65;8.23;;;7.30;79.30;;;;;;5050457;28;20112;-84
2022/01/14 05:14:58;;;;;;;12.00;7.75;;;7.30;79.30;;;;;;5057111;28;20028;-84
2022/01/14 05:17:24;;;;;;;10.68;7.20;;;7.30;79.30;;;;;;5050408;28;20354;-84
2022/01/14 05:19:51;;;;;;;11.05;7.55;;;7.30;79.30;;;;;;5054473;28;20033;-87
2022/01/14 05:22:17;;;;;;;10.70;7.30;;;7.30;79.40;;;;;;5060391;28;20115;-87
2022/01/14 05:24:44;;;;;;;13.00;8.10;;;7.30;79.30;;;;;;5043169;28;20035;-84
2022/01/14 05:27:10;;;;;;;10.35;6.78;;;7.30;79.30;;;;;;5063884;28;20021;-85
2022/01/14 05:29:36;;;;;;;10.20;6.88;;;7.30;79.30;;;;;;5061975;28;20037;-84
2022/01/14 05:32:03;;;;;;;8.95;6.20;;;7.30;79.30;;;;;;5057578;28;20112;-86
2022/01/14 05:34:31;;;;;;;10.30;7.07;;;7.30;79.30;;;;;;5058104;28;20107;-85
2022/01/14 05:36:57;;;;;;;10.55;6.97;;;7.30;79.30;;;;;;5064103;28;20047;-86
2022/01/14 05:39:23;;;;;;;11.63;7.30;;;7.30;79.30;;;;;;5057658;28;20074;-85
2022/01/14 05:41:50;;;;;;;10.98;7.10;;;7.30;79.30;;;;;;5041624;28;20029;-83
2022/01/14 05:44:16;;;;;;;10.57;6.75;;;7.30;79.30;;;;;;5044125;28;20032;-82
2022/01/14 05:46:42;;;;;;;10.77;7.20;;;7.30;79.30;;;;;;5065348;28;20036;-82
2022/01/14 05:49:08;;;;;;;10.45;6.75;;;7.30;79.30;;;;;;5028371;28;20057;-81
2022/01/14 05:51:33;;;;;;;10.05;7.10;;;7.30;79.40;;;;;;5057973;28;20050;-80
2022/01/14 05:53:59;;;;;;;10.40;6.60;;;7.30;79.30;;;;;;5029046;28;20112;-83
2022/01/14 05:56:25;;;;;;;10.52;7.63;;;7.30;79.30;;;;;;5054554;28;20044;-82
2022/01/14 05:58:51;;;;;;;11.05;6.75;;;7.30;79.40;;;;;;5056914;28;20030;-83
2022/01/14 06:01:17;;;;;;;10.95;7.32;;;7.30;79.40;;;;;;5039200;28;20037;-82
2022/01/14 06:03:43;;;;;;;8.73;6.25;;;7.30;79.30;;;;;;5047333;28;20025;-82
2022/01/14 06:06:08;;;;;;;10.48;6.88;;;7.20;79.30;;;;;;5076115;28;20469;-83
2022/01/14 06:08:34;;;;;;;9.40;6.63;;;7.20;79.30;;;;;;5024002;28;20032;-84
2022/01/14 06:11:00;;;;;;;8.43;6.13;;;7.30;79.30;;;;;;5037303;28;20025;-84
2022/01/14 06:13:26;;;;;;;9.02;6.20;;;7.20;79.30;;;;;;5034814;28;20064;-81
2022/01/14 06:15:52;;;;;;;9.65;6.47;;;7.30;79.40;;;;;;5033424;28;20025;-81
2022/01/14 06:18:17;;;;;;;9.80;6.97;;;7.20;79.30;;;;;;5062508;28;20029;-81
2022/01/14 06:20:43;;;;;;;9.82;7.00;;;7.30;79.40;;;;;;5066113;28;20397;-83
2022/01/14 06:23:09;;;;;;;10.35;6.93;;;7.20;79.30;;;;;;5057825;28;20040;-84
2022/01/14 06:25:35;;;;;;;9.65;6.70;;;7.30;79.30;;;;;;5027008;28;20044;-79
2022/01/14 06:28:00;;;;;;;9.32;6.22;;;7.30;79.30;;;;;;5042867;28;20075;-85
2022/01/14 06:30:26;;;;;;;10.50;6.75;;;7.30;79.30;;;;;;5041844;28;20586;-81
2022/01/14 06:32:53;;;;;;;8.85;6.15;;;7.30;79.40;;;;;;5069214;28;20027;-79
2022/01/14 06:35:20;;;;;;;10.35;6.60;;;7.20;79.30;;;;;;5044894;28;20085;-80
2022/01/14 06:37:46;;;;;;;9.35;6.30;;;7.30;79.40;;;;;;5032293;28;20029;-84
2022/01/14 06:40:12;;;;;;;8.23;6.10;;;7.30;79.40;;;;;;5067642;28;20374;-80
2022/01/14 06:42:38;;;;;;;10.82;7.40;;;7.30;79.40;;;;;;5054889;28;20056;-83
2022/01/14 06:45:06;;;;;;;9.38;7.10;;;7.30;79.40;;;;;;5036063;28;20472;-82
2022/01/14 06:47:32;;;;;;;9.98;6.65;;;7.30;79.40;;;;;;5051106;28;20083;-80
2022/01/14 06:49:59;;;;;;;10.25;6.70;;;7.20;79.30;;;;;;5056541;28;20060;-81
2022/01/14 06:52:25;;;;;;;9.85;6.40;;;7.30;79.40;;;;;;5042263;28;20029;-80
2022/01/14 06:54:50;;;;;;;9.32;6.15;;;7.20;79.30;;;;;;5044205;28;20534;-82
2022/01/14 06:57:16;;;;;;;8.88;6.53;;;7.20;79.30;;;;;;5045966;28;20029;-82
2022/01/14 06:59:42;;;;;;;8.85;6.13;;;7.30;79.40;;;;;;5039949;28;20552;-81
2022/01/14 07:02:10;;;;;;;10.23;7.03;;;7.20;79.30;;;;;;5032787;28;20020;-81
2022/01/14 07:04:36;;;;;;;9.75;6.75;;;7.20;79.30;;;;;;5050317;28;20107;-81
2022/01/14 07:07:03;;;;;;;9.85;6.28;;;7.30;79.40;;;;;;5039928;28;20461;-82
2022/01/14 07:09:30;;;;;;;9.82;6.90;;;7.30;79.40;;;;;;5055732;28;20064;-84
2022/01/14 07:11:58;;;;;;;9.85;6.82;;;7.30;79.40;;;;;;5042243;28;20075;-81
2022/01/14 07:14:25;;;;;;;10.77;6.53;;;7.20;79.30;;;;;;5062752;28;20127;-81
2022/01/14 07:16:51;;;;;;;9.70;6.25;;;7.20;79.30;;;;;;5042885;28;20052;-82
2022/01/14 07:19:20;;;;;;;9.95;6.97;;;7.30;79.40;;;;;;5028382;28;20064;-82
2022/01/14 07:21:45;;;;;;;9.80;6.95;;;7.30;79.40;;;;;;5054091;28;20107;-82
2022/01/14 07:24:13;;;;;;;9.57;6.30;;;7.30;79.40;;;;;;5046626;28;20469;-82
2022/01/14 07:26:40;;;;;;;9.73;6.45;;;7.30;79.40;;;;;;5043415;28;20017;-81
2022/01/14 07:29:06;;;;;;;10.23;7.05;;;7.30;79.40;;;;;;5044569;28;20036;-84
2022/01/14 07:31:32;;;;;;;8.77;6.30;;;7.30;79.40;;;;;;5076287;28;20063;-81
2022/01/14 07:33:58;;;;;;;9.02;6.20;;;7.20;79.30;;;;;;5071703;28;20052;-84
2022/01/14 07:36:24;;;;;;;9.73;6.57;;;7.30;79.40;;;;;;5039904;28;20036;-81
2022/01/14 07:38:50;;;;;;;8.25;5.88;;;7.20;79.30;;;;;;5049189;28;20536;-84
2022/01/14 07:41:16;;;;;;;9.60;6.40;;;7.30;79.40;;;;;;5046086;28;20047;-82
2022/01/14 07:43:48;;;;;;;8.52;6.38;;;7.20;79.30;;;;;;5026756;28;20078;-81
2022/01/14 07:46:15;;;;;;;8.80;6.00;;;7.30;80.00;;;;;;5042358;28;20057;-82
2022/01/14 07:48:41;;;;;;;9.63;5.63;;;7.20;79.30;;;;;;5024299;28;20029;-81
2022/01/14 07:51:09;;;;;;;9.60;6.20;;;7.20;79.40;;;;;;5050151;28;20029;-89
2022/01/14 07:53:34;;;;;;;8.50;5.93;;;7.20;79.40;;;;;;5048658;28;20040;-81
2022/01/14 07:56:00;;;;;;;8.45;5.72;;;7.30;79.40;;;;;;5036791;28;20037;-82
2022/01/14 07:58:27;;;;;;;8.90;6.47;;;7.20;79.40;;;;;;5062763;28;20408;-81
2022/01/14 08:00:53;;;;;;;9.25;5.93;;;7.30;79.40;;;;;;5037572;28;20042;-82
2022/01/14 08:03:18;;;;;;;9.98;6.53;;;7.20;79.40;;;;;;5050535;28;20416;-81
2022/01/14 08:05:45;;;;;;;9.70;6.60;;;7.20;79.40;;;;;;5029578;28;20028;-82
2022/01/14 08:08:11;;;;;;;9.75;6.57;;;7.20;79.40;;;;;;5035269;28;20029;-82
2022/01/14 08:10:37;;;;;;;7.53;5.20;;;7.20;79.40;;;;;;5057157;28;20058;-83
2022/01/14 08:13:03;;;;;;;8.88;6.38;;;7.20;79.40;;;;;;5042340;28;20037;-80
2022/01/14 08:15:29;;;;;;;9.35;6.50;;;7.20;79.40;;;;;;5069561;28;20047;-79
2022/01/14 08:17:55;;;;;;;8.95;6.00;;;7.20;79.40;;;;;;5079834;28;20039;-82
2022/01/14 08:20:21;;;;;;;8.25;6.00;;;7.30;79.40;;;;;;5047079;28;20033;-83
2022/01/14 08:22:47;;;;;;;9.52;6.28;;;7.20;79.40;;;;;;5049067;28;20021;-83
2022/01/14 08:25:13;;;;;;;9.90;6.47;;;7.20;79.40;;;;;;5079851;28;20037;-84
2022/01/14 08:27:39;;;;;;;8.93;6.07;;;7.30;79.50;;;;;;5024989;28;20037;-83
2022/01/14 08:30:06;;;;;;;9.25;6.28;;;7.20;79.40;;;;;;5042867;28;20159;-84
2022/01/14 08:32:32;;;;;;;8.50;6.00;;;7.20;79.40;;;;;;5042607;28;20051;-87
2022/01/14 08:34:58;;;;;;;8.80;6.18;;;7.20;79.40;;;;;;5039653;28;20028;-84
2022/01/14 08:37:24;;;;;;;8.70;5.95;;;7.20;79.40;;;;;;5031207;28;20040;-87
2022/01/14 08:39:49;;;;;;;9.60;6.40;;;7.20;79.40;;;;;;5046000;28;20049;-83
2022/01/14 08:42:16;;;;;;;8.77;6.07;;;7.20;79.30;;;;;;5043833;28;20032;-83
2022/01/14 08:44:42;;;;;;;8.63;6.05;;;7.20;79.40;;;;;;5041094;28;20044;-83
2022/01/14 08:47:09;;;;;;;8.57;6.30;;;7.20;79.30;;;;;;5046090;28;20055;-83
2022/01/14 08:49:43;;;;;;;8.68;5.82;;;7.20;79.40;;;;;;5040857;28;20029;-83
2022/01/14 08:52:11;;;;;;;8.07;5.60;;;7.20;79.40;;;;;;5047287;28;20028;-88
2022/01/14 08:54:37;;;;;;;8.70;6.45;;;7.20;79.40;;;;;;5072480;28;20036;-82
2022/01/14 08:57:04;;;;;;;8.23;6.00;;;7.20;79.40;;;;;;5043881;28;20110;-82
2022/01/14 08:59:31;;;;;;;8.63;6.00;;;7.20;79.40;;;;;;5010684;28;20148;-85
2022/01/14 09:01:57;;;;;;;7.93;5.88;;;7.20;79.40;;;;;;5078170;28;20048;-83
2022/01/14 09:04:23;;;;;;;8.32;5.90;;;7.20;79.40;;;;;;5031414;28;20539;-84
2022/01/14 09:06:49;;;;;;;8.52;5.93;;;7.30;79.50;;;;;;5047230;28;20440;-84
2022/01/14 09:09:15;;;;;;;7.80;5.32;;;7.30;79.50;;;;;;5035731;28;20047;-84
2022/01/14 09:11:41;;;;;;;8.07;5.95;;;7.20;79.40;;;;;;5063971;28;20048;-83
2022/01/14 09:14:07;;;;;;;8.88;6.07;;;7.20;79.40;;;;;;5056143;28;20033;-82
2022/01/14 09:16:33;;;;;;;7.63;5.53;;;7.20;79.40;;;;;;5041972;28;20024;-83
2022/01/14 09:18:59;;;;;;;10.05;6.55;;;7.20;79.40;;;;;;5066234;28;20034;-83
2022/01/14 09:21:26;;;;;;;8.23;5.70;;;7.20;79.40;;;;;;5043457;28;20216;-83
2022/01/14 09:23:57;;;;;;;8.35;6.15;;;7.20;79.40;;;;;;5039395;28;20047;-83
2022/01/14 09:26:22;;;;;;;8.48;5.82;;;7.20;79.40;;;;;;5036119;28;20039;-86
2022/01/14 09:28:49;;;;;;;8.73;5.57;;;7.30;79.50;;;;;;5051616;28;20029;-83
2022/01/14 09:31:16;;;;;;;9.45;6.20;;;7.30;79.50;;;;;;5077833;28;20024;-83
2022/01/14 09:33:41;;;;;;;8.38;5.65;;;7.30;79.50;;;;;;5059437;28;20032;-83
2022/01/14 09:36:07;;;;;;;8.75;6.28;;;7.30;79.50;;;;;;5041828;28;20025;-83
2022/01/14 09:38:33;;;;;;;8.80;5.63;;;7.30;79.50;;;;;;5074366;28;20088;-82
2022/01/14 09:41:00;;;;;;;8.85;6.05;;;7.30;79.50;;;;;;5075967;28;20441;-83
2022/01/14 09:43:25;;;;;;;9.43;6.10;;;7.30;79.50;;;;;;5038495;28;20032;-82
2022/01/14 09:45:55;;;;;;;8.98;6.03;;;7.30;79.50;;;;;;5058864;28;20458;-83
2022/01/14 09:48:21;;;;;;;8.90;5.93;;;7.30;79.80;;;;;;5025199;28;20040;-83
2022/01/14 09:50:47;;;;;;;8.13;5.90;;;7.30;79.50;;;;;;5045860;28;20016;-85
2022/01/14 09:53:16;;;;;;;8.52;5.70;;;7.30;79.50;;;;;;5050801;28;20028;-85
2022/01/14 09:55:43;;;;;;;7.82;5.68;;;7.30;79.50;;;;;;5044755;28;20078;-83
2022/01/14 09:58:09;;;;;;;8.25;5.75;;;7.30;79.50;;;;;;5045116;28;20025;-84
2022/01/14 10:00:36;;;;;;;8.48;5.82;;;7.30;79.50;;;;;;5046002;28;20020;-83
2022/01/14 10:03:18;;;;;;;8.50;5.72;;;7.30;79.50;;;;;;5050341;28;20078;-83
2022/01/14 10:05:47;;;;;;;8.68;5.88;;;7.30;79.60;;;;;;5028421;28;20194;-87
2022/01/14 10:08:21;;;;;;;8.80;5.60;;;7.30;79.50;;;;;;5039250;28;20082;-84
2022/01/14 10:10:57;;;;;;;7.93;5.50;;;7.30;79.50;;;;;;5057778;28;20049;-82
2022/01/14 10:13:26;;;;;;;8.32;5.43;;;7.30;79.50;;;;;;5058122;28;20029;-86
2022/01/14 10:15:58;;;;;;;8.55;5.57;;;7.30;79.50;;;;;;5042501;28;20028;-85
2022/01/14 10:18:24;;;;;;;7.93;5.57;;;7.30;79.50;;;;;;5058392;28;20046;-82
2022/01/14 10:20:51;;;;;;;7.40;5.45;;;7.30;79.50;;;;;;5040564;28;20478;-83
2022/01/14 10:23:41;;;;;;;8.73;6.35;;;7.30;79.50;;;;;;5070567;28;20029;-82
2022/01/14 10:26:07;;;;;;;8.88;5.63;;;7.30;79.70;;;;;;5059546;28;20473;-81
2022/01/14 10:28:37;;;;;;;8.82;5.85;;;7.30;79.50;;;;;;5044288;28;20020;-80
2022/01/14 10:31:05;;;;;;;8.70;5.97;;;7.30;79.50;;;;;;5048259;28;20129;-86
2022/01/14 10:33:31;;;;;;;8.52;6.07;;;7.30;79.50;;;;;;5020315;28;20548;-85
2022/01/14 10:35:58;;;;;;;8.45;5.97;;;7.40;79.60;;;;;;5055371;28;20131;-83
2022/01/14 10:38:36;;;;;;;8.32;6.03;;;7.30;79.50;;;;;;5035207;28;20032;-82
2022/01/14 10:41:07;;;;;;;8.00;5.68;;;7.30;79.50;;;;;;5057673;28;20022;-81
2022/01/14 10:43:38;;;;;;;8.30;5.95;;;7.40;80.20;;;;;;5068311;28;20077;-80
2022/01/14 10:46:09;;;;;;;7.97;5.28;;;7.40;79.60;;;;;;5069365;28;20053;-80
2022/01/14 10:48:46;;;;;;;8.27;5.40;;;7.40;79.60;;;;;;5072175;28;20033;-86
2022/01/14 10:51:16;;;;;;;8.43;5.55;;;7.40;79.60;;;;;;5045760;28;20055;-86
2022/01/14 10:53:49;;;;;;;8.90;5.97;;;7.40;79.60;;;;;;5033932;28;20029;-86
2022/01/14 10:56:19;;;;;;;9.07;6.03;;;7.40;79.60;;;;;;5040890;28;20024;-87
2022/01/14 10:58:47;;;;;;;9.10;5.78;;;7.40;79.60;;;;;;5060584;28;20038;-84
2022/01/14 11:01:20;;;;;;;7.90;5.45;;;7.40;79.60;;;;;;5031265;28;20036;-84
2022/01/14 11:03:49;;;;;;;9.00;5.72;;;7.40;79.60;;;;;;5045565;28;20032;-86
2022/01/14 11:06:26;;;;;;;9.15;5.82;;;7.40;79.50;;;;;;5057673;28;20056;-87
2022/01/14 11:09:00;;;;;;;9.23;6.03;;;7.40;79.60;;;;;;5043860;28;20067;-86
2022/01/14 11:11:30;;;;;;;8.30;5.83;;;7.40;79.50;;;;;;5047264;28;20461;-84
2022/01/14 11:13:56;;;;;;;8.90;6.05;;;7.40;79.50;;;;;;5046244;28;20703;-87
2022/01/14 11:16:22;;;;;;;8.77;5.78;;;7.40;79.50;;;;;;5059982;28;20035;-81
2022/01/14 11:18:48;;;;;;;8.13;5.78;;;7.50;79.50;;;;;;5040841;28;20408;-84
2022/01/14 11:24:03;;;;;;;8.07;5.82;;;7.50;79.50;;;;;;5050892;28;20064;-86
2022/01/14 11:26:34;;;;;;;8.35;5.55;;;7.50;79.50;;;;;;5010081;28;20388;-82
2022/01/14 11:29:12;;;;;;;8.15;5.40;;;7.50;79.50;;;;;;5050990;28;20469;-84
2022/01/14 11:31:39;;;;;;;9.35;6.20;;;7.50;79.60;;;;;;5046489;28;20024;-87
2022/01/14 11:34:25;;;;;;;8.65;5.68;;;7.50;79.50;;;;;;5045023;28;20078;-81
2022/01/14 11:37:02;;;;;;;8.63;5.90;;;7.50;79.50;;;;;;5040022;28;20854;-85
2022/01/14 11:39:38;;;;;;;7.88;5.43;;;7.50;79.50;;;;;;5045809;28;20037;-85
2022/01/14 11:42:09;;;;;;;8.25;5.53;;;7.50;79.60;;;;;;5042584;28;20028;-84
2022/01/14 11:44:52;;;;;;;8.32;6.07;;;7.60;79.60;;;;;;5042488;28;20029;-84
2022/01/14 11:47:24;;;;;;;7.65;5.25;;;7.50;79.60;;;;;;5052947;28;20142;-83
2022/01/14 11:49:51;;;;;;;7.97;5.63;;;7.50;79.50;;;;;;5064211;28;20037;-83
2022/01/14 11:52:37;;;;;;;8.40;5.88;;;7.50;79.50;;;;;;5025841;28;20393;-83
2022/01/14 11:55:05;;;;;;;8.48;5.60;;;7.60;79.70;;;;;;5054922;28;20021;-83
2022/01/14 11:57:45;;;;;;;8.70;6.18;;;7.60;79.60;;;;;;5045190;28;20591;-86
2022/01/14 12:00:37;;;;;;;8.52;6.07;;;7.60;79.60;;;;;;5053149;28;20020;-85
2022/01/14 12:03:15;;;;;;;7.78;5.45;;;7.60;79.60;;;;;;5054441;28;20059;-83
2022/01/14 12:05:50;;;;;;;8.27;5.70;;;7.60;79.60;;;;;;5055191;28;20043;-83
2022/01/14 12:08:18;;;;;;;8.73;5.60;;;7.60;79.60;;;;;;5054277;28;20380;-80
2022/01/14 12:10:48;;;;;;;8.60;5.78;;;7.60;79.50;;;;;;5045682;28;20384;-82
2022/01/14 12:13:25;;;;;;;8.30;6.10;;;7.60;80.20;;;;;;5063343;28;20053;-84
2022/01/14 12:16:19;;;;;;;8.60;5.63;;;7.60;79.60;;;;;;5082638;28;20055;-87
2022/01/14 12:18:57;;;;;;;8.93;5.85;;;7.60;79.50;;;;;;5064083;28;20035;-86
2022/01/14 12:21:41;;;;;;;7.78;5.43;;;7.60;79.60;;;;;;5061339;28;20104;-89
2022/01/14 12:24:34;;;;;;;7.88;5.70;;;7.60;79.60;;;;;;5076161;28;20025;-88
2022/01/14 12:27:07;;;;;;;8.38;5.85;;;7.60;79.60;;;;;;5020935;28;20087;-88
2022/01/14 12:29:37;;;;;;;7.88;5.30;;;7.70;79.50;;;;;;5068937;28;20071;-89
2022/01/14 12:32:07;;;;;;;8.48;6.03;;;7.70;79.50;;;;;;5058577;28;20028;-89
2022/01/14 12:34:39;;;;;;;8.77;6.00;;;7.70;79.60;;;;;;5060420;28;20033;-86
2022/01/14 12:37:07;;;;;;;9.75;6.57;;;7.70;79.50;;;;;;5063167;28;20056;-86
2022/01/14 12:39:33;;;;;;;8.52;6.15;;;7.70;79.50;;;;;;5052291;28;20028;-87
2022/01/14 12:42:00;;;;;;;7.35;5.38;;;7.70;79.50;;;;;;5045481;28;20915;-82
2022/01/14 12:44:27;;;;;;;8.40;5.82;;;7.70;79.50;;;;;;5056955;28;20527;-84
2022/01/14 12:47:09;;;;;;;8.73;6.10;;;7.70;79.50;;;;;;5058800;28;20477;-84
2022/01/14 12:49:35;;;;;;;8.20;6.25;;;7.70;79.50;;;;;;5049795;28;20039;-83
2022/01/14 12:52:12;;;;;;;9.10;6.20;;;7.70;79.40;;;;;;5078103;28;20028;-83
2022/01/14 12:54:40;;;;;;;7.93;5.63;;;7.80;79.50;;;;;;5044776;28;20111;-83
2022/01/14 12:57:06;;;;;;;8.68;5.82;;;7.80;79.50;;;;;;5044379;28;20146;-82
2022/01/14 13:00:04;;;;;;;9.32;5.72;;;7.80;79.50;;;;;;5057152;28;20029;-86
2022/01/14 13:02:30;;;;;;;8.00;5.88;;;7.80;79.60;;;;;;5044640;28;20043;-84
2022/01/14 13:05:08;;;;;;;9.07;6.00;;;7.80;79.40;;;;;;5055265;28;20041;-86
2022/01/14 13:07:35;;;;;;;7.75;5.55;;;7.80;79.50;;;;;;5074512;28;20024;-88
2022/01/14 13:10:03;;;;;;;9.27;6.32;;;7.80;79.40;;;;;;5065578;28;20535;-83
2022/01/14 13:12:34;;;;;;;9.38;6.45;;;7.80;79.50;;;;;;5046257;28;20024;-86
2022/01/14 13:15:03;;;;;;;7.53;5.32;;;7.80;79.40;;;;;;5055723;28;20033;-85
2022/01/14 13:17:35;;;;;;;9.35;6.45;;;7.80;79.40;;;;;;5044408;28;20029;-84
2022/01/14 13:20:10;;;;;;;9.40;6.55;;;7.80;79.40;;;;;;5040677;28;20021;-83
2022/01/14 13:22:36;;;;;;;8.07;5.60;;;7.90;79.50;;;;;;5034676;28;20016;-85
2022/01/14 13:25:12;;;;;;;8.10;5.90;;;7.90;79.40;;;;;;5050848;28;20430;-83
2022/01/14 13:27:42;;;;;;;8.95;6.60;;;7.90;79.50;;;;;;5054476;28;20029;-85
2022/01/14 13:30:14;;;;;;;9.52;6.00;;;7.90;79.40;;;;;;5060704;28;20065;-83